createdAt,value
2022-08-25T00:00:23.260Z,2.00
2022-08-25T00:05:29.117Z,1.90
2022-08-25T00:10:34.550Z,1.90
2022-08-25T00:15:35.589Z,2.10
2022-08-25T00:20:36.506Z,2.35
2022-08-25T00:25:41.279Z,2.10
2022-08-25T00:30:42.808Z,1.77
2022-08-25T00:35:44.675Z,2.10
2022-08-25T00:40:46.342Z,2.50
2022-08-25T00:45:47.603Z,2.10
2022-08-25T00:50:48.639Z,2.00
2022-08-25T00:55:50.407Z,2.25
2022-08-25T01:00:54.870Z,2.13
2022-08-25T01:05:56.152Z,2.50
2022-08-25T01:11:04.630Z,2.00
2022-08-25T01:16:05.860Z,2.30
2022-08-25T01:21:06.846Z,2.00
2022-08-25T01:26:17.631Z,2.20
2022-08-25T01:31:24.176Z,2.25
2022-08-25T01:36:27.596Z,2.22
2022-08-25T01:46:31.142Z,2.12
2022-08-25T01:52:19.826Z,2.50
2022-08-25T01:57:22.526Z,2.40
2022-08-25T02:02:23.670Z,2.40
2022-08-25T02:07:27.223Z,2.35
2022-08-25T02:12:31.121Z,2.60
2022-08-25T02:17:33.620Z,2.40
2022-08-25T02:22:34.494Z,2.22
2022-08-25T02:27:35.429Z,2.22
2022-08-25T02:32:36.371Z,3.00
2022-08-25T02:37:37.334Z,2.03
2022-08-25T02:42:38.187Z,2.37
2022-08-25T02:47:41.426Z,2.65
2022-08-25T02:52:42.451Z,3.12
2022-08-25T02:57:43.482Z,2.60
2022-08-25T03:02:44.582Z,2.55
2022-08-25T03:07:45.398Z,2.47
2022-08-25T03:12:46.960Z,2.83
2022-08-25T03:17:48.783Z,3.00
2022-08-25T03:22:51.695Z,3.03
2022-08-25T03:27:52.736Z,3.00
2022-08-25T03:32:53.701Z,2.92
2022-08-25T03:37:55.970Z,3.37
2022-08-25T03:42:56.800Z,2.90
2022-08-25T03:47:57.643Z,2.78
2022-08-25T03:52:58.484Z,3.28
2022-08-25T03:57:59.451Z,3.75
2022-08-25T04:03:00.490Z,3.22
2022-08-25T04:08:02.066Z,3.33
2022-08-25T04:13:03.102Z,3.42
2022-08-25T04:18:04.323Z,3.10
2022-08-25T04:23:05.397Z,3.45
2022-08-25T04:28:06.520Z,3.67
2022-08-25T04:33:07.651Z,3.70
2022-08-25T04:38:08.501Z,3.42
2022-08-25T04:43:09.424Z,3.75
2022-08-25T04:48:10.374Z,3.65
2022-08-25T04:53:11.382Z,4.28
2022-08-25T04:58:16.456Z,3.83
2022-08-25T05:03:17.712Z,4.03
2022-08-25T05:08:18.542Z,4.07
2022-08-25T05:13:25.036Z,3.70
2022-08-25T05:18:29.521Z,3.67
2022-08-25T05:23:31.396Z,4.35
2022-08-25T05:28:32.520Z,4.18
2022-08-25T05:33:34.675Z,4.15
2022-08-25T05:38:37.075Z,4.00
2022-08-25T05:43:39.944Z,4.05
2022-08-25T05:48:41.367Z,3.78
2022-08-25T05:53:45.151Z,4.82
2022-08-25T05:58:46.945Z,5.07
2022-08-25T06:03:49.130Z,4.67
2022-08-25T06:08:50.676Z,5.37
2022-08-25T06:13:51.501Z,4.90
2022-08-25T06:18:52.360Z,5.20
2022-08-25T06:23:53.241Z,4.80
2022-08-25T06:28:54.073Z,5.03
2022-08-25T06:33:55.119Z,6.75
2022-08-25T06:38:56.012Z,5.07
2022-08-25T06:44:05.533Z,5.70
2022-08-25T06:49:07.315Z,6.68
2022-08-25T06:54:11.499Z,6.45
2022-08-25T06:59:12.545Z,6.30
2022-08-25T07:04:13.665Z,7.47
2022-08-25T07:09:16.555Z,7.15
2022-08-25T07:14:18.273Z,8.27
2022-08-25T07:19:20.010Z,7.10
2022-08-25T07:24:21.979Z,6.87
2022-08-25T07:29:32.786Z,6.83
2022-08-25T07:34:52.919Z,7.00
2022-08-25T07:39:54.679Z,6.45
2022-08-25T07:44:55.533Z,6.83
2022-08-25T07:49:57.064Z,6.15
2022-08-25T07:54:58.795Z,6.22
2022-08-25T07:59:59.602Z,6.80
2022-08-25T08:05:01.250Z,6.18
2022-08-25T08:10:32.879Z,6.70
2022-08-25T08:15:42.995Z,6.53
2022-08-25T08:20:46.360Z,5.80
2022-08-25T08:25:47.368Z,6.60
2022-08-25T08:30:52.858Z,5.97
2022-08-25T08:36:13.254Z,6.82
2022-08-25T08:42:11.681Z,5.75
2022-08-25T08:49:26.761Z,5.95
2022-08-25T08:54:34.344Z,6.00
2022-08-25T08:59:48.865Z,5.57
2022-08-25T09:09:58.193Z,5.22
2022-08-25T09:17:15.882Z,5.22
2022-08-25T09:24:07.602Z,5.45
2022-08-25T09:29:18.638Z,6.35
2022-08-25T09:34:23.025Z,6.37
2022-08-25T09:39:23.953Z,6.45
2022-08-25T09:44:38.050Z,5.32
2022-08-25T09:49:42.744Z,5.55
2022-08-25T09:54:46.769Z,5.90
2022-08-25T09:59:57.371Z,6.70
2022-08-25T10:04:59.309Z,5.47
2022-08-25T10:10:03.621Z,5.87
2022-08-25T10:15:29.998Z,6.60
2022-08-25T10:20:35.183Z,6.72
2022-08-25T10:25:57.751Z,6.47
2022-08-25T10:36:50.866Z,5.97
2022-08-25T10:42:28.691Z,5.60
2022-08-25T10:47:49.384Z,6.28
2022-08-25T10:53:28.654Z,6.80
2022-08-25T10:59:16.014Z,7.05
2022-08-25T11:04:25.497Z,7.00
2022-08-25T11:09:38.216Z,6.70
2022-08-25T11:14:56.958Z,6.30
2022-08-25T11:20:06.977Z,5.82
2022-08-25T11:25:29.142Z,6.47
2022-08-25T11:30:30.137Z,5.72
2022-08-25T11:35:50.580Z,6.70
2022-08-25T11:41:26.526Z,6.53
2022-08-25T11:48:16.004Z,6.43
2022-08-25T11:53:37.989Z,6.12
2022-08-25T11:58:51.089Z,5.75
2022-08-25T12:03:53.435Z,5.68
2022-08-25T12:09:27.628Z,5.10
2022-08-25T12:14:41.496Z,5.32
2022-08-25T12:19:53.067Z,5.17
2022-08-25T12:35:42.921Z,6.55
2022-08-25T12:40:58.650Z,5.70
2022-08-25T12:46:36.180Z,5.47
2022-08-25T12:54:51.529Z,5.43
2022-08-25T12:59:56.454Z,5.15
2022-08-25T13:06:08.167Z,5.25
2022-08-25T13:11:30.295Z,5.43
2022-08-25T13:16:33.544Z,5.68
2022-08-25T13:21:42.125Z,5.32
2022-08-25T13:26:48.535Z,5.10
2022-08-25T13:31:56.673Z,4.55
2022-08-25T13:37:27.170Z,4.62
2022-08-25T13:42:31.013Z,4.95
2022-08-25T13:47:43.594Z,4.90
2022-08-25T13:52:54.923Z,5.00
2022-08-25T13:57:58.429Z,5.22
2022-08-25T14:03:01.948Z,4.93
2022-08-25T14:08:16.290Z,4.80
2022-08-25T14:13:31.937Z,4.90
2022-08-25T14:18:34.621Z,4.75
2022-08-25T14:23:38.447Z,4.53
2022-08-25T14:28:40.146Z,4.65
2022-08-25T14:38:58.847Z,4.90
2022-08-25T14:44:03.972Z,5.00
2022-08-25T14:49:09.849Z,4.60
2022-08-25T14:54:14.231Z,3.92
2022-08-25T14:59:15.124Z,4.30
2022-08-25T15:04:25.850Z,4.40
2022-08-25T15:09:29.460Z,4.28
2022-08-25T15:14:34.518Z,4.50
2022-08-25T15:19:35.879Z,4.07
2022-08-25T15:24:38.935Z,4.03
2022-08-25T15:29:40.212Z,4.43
2022-08-25T15:34:42.327Z,4.50
2022-08-25T15:39:45.971Z,3.93
2022-08-25T15:44:53.143Z,4.37
2022-08-25T15:50:04.552Z,4.82
2022-08-25T15:55:06.415Z,4.50
2022-08-25T16:05:11.417Z,5.20
2022-08-25T16:10:14.405Z,5.57
2022-08-25T16:15:15.277Z,4.72
2022-08-25T16:20:16.413Z,5.05
2022-08-25T16:25:18.994Z,5.03
2022-08-25T16:35:21.900Z,5.05
2022-08-25T16:40:25.726Z,4.55
2022-08-25T16:45:27.622Z,4.85
2022-08-25T16:50:30.053Z,4.97
2022-08-25T16:55:39.844Z,5.07
2022-08-25T17:00:41.248Z,4.68
2022-08-25T17:05:45.016Z,4.85
2022-08-25T17:10:46.420Z,4.50
2022-08-25T17:15:48.668Z,4.68
2022-08-25T17:21:04.005Z,4.78
2022-08-25T17:26:06.313Z,4.47
2022-08-25T17:36:09.196Z,4.60
2022-08-25T17:41:10.519Z,4.60
2022-08-25T17:46:12.169Z,4.50
2022-08-25T17:56:20.246Z,3.92
2022-08-25T18:01:30.367Z,4.37
2022-08-25T18:06:32.045Z,4.47
2022-08-25T18:11:32.948Z,4.73
2022-08-25T18:16:33.984Z,4.65
2022-08-25T18:21:35.348Z,4.47
2022-08-25T18:26:36.212Z,4.62
2022-08-25T18:31:37.055Z,4.50
2022-08-25T18:36:39.124Z,4.03
2022-08-25T18:41:42.095Z,4.50
2022-08-25T18:46:43.028Z,4.90
2022-08-25T18:51:48.089Z,4.55
2022-08-25T18:56:49.251Z,4.15
2022-08-25T19:01:51.880Z,4.60
2022-08-25T19:06:52.887Z,4.03
2022-08-25T19:11:54.725Z,3.92
2022-08-25T19:16:57.870Z,4.00
2022-08-25T19:21:59.221Z,4.93
2022-08-25T19:27:01.864Z,4.15
2022-08-25T19:37:05.664Z,4.40
2022-08-25T19:42:07.722Z,4.07
2022-08-25T19:47:09.162Z,4.60
2022-08-25T19:52:16.484Z,4.40
2022-08-25T19:57:28.018Z,4.32
2022-08-25T20:02:37.073Z,4.03
2022-08-25T20:07:38.359Z,4.43
2022-08-25T20:12:39.492Z,4.20
2022-08-25T20:17:41.501Z,4.37
2022-08-25T20:22:43.004Z,4.47
2022-08-25T20:27:47.439Z,4.32
2022-08-25T20:32:49.929Z,4.40
2022-08-25T20:42:55.004Z,4.07
2022-08-25T20:47:55.911Z,4.67
2022-08-25T20:52:57.934Z,5.00
2022-08-25T20:57:58.814Z,4.55
2022-08-25T21:02:59.655Z,4.80
2022-08-25T21:08:02.075Z,4.90
2022-08-25T21:13:02.954Z,4.57
2022-08-25T21:18:03.861Z,4.20
2022-08-25T21:23:07.173Z,4.68
2022-08-25T21:28:10.275Z,4.57
2022-08-25T21:33:11.176Z,4.90
2022-08-25T21:38:12.139Z,5.00
2022-08-25T21:43:12.977Z,5.22
2022-08-25T21:48:14.311Z,4.97
2022-08-25T21:53:15.131Z,4.72
2022-08-25T21:58:16.173Z,4.95
2022-08-25T22:03:17.082Z,4.90
2022-08-25T22:08:18.050Z,4.95
2022-08-25T22:13:20.457Z,5.53
2022-08-25T22:18:21.410Z,4.90
2022-08-25T22:23:22.860Z,4.72
2022-08-25T22:28:29.728Z,4.75
2022-08-25T22:33:30.553Z,4.70
2022-08-25T22:38:31.510Z,4.53
2022-08-25T22:43:32.359Z,4.45
2022-08-25T22:48:35.013Z,4.65
2022-08-25T22:53:39.105Z,4.60
2022-08-25T23:03:44.391Z,4.55
2022-08-25T23:08:46.585Z,4.40
2022-08-25T23:13:47.963Z,4.57
2022-08-25T23:18:49.370Z,4.67
2022-08-25T23:23:50.675Z,4.32
2022-08-25T23:28:52.018Z,4.07
2022-08-25T23:33:52.821Z,4.10
2022-08-25T23:38:54.865Z,4.40
2022-08-25T23:43:55.732Z,4.30
2022-08-25T23:48:57.070Z,4.47
2022-08-25T23:54:04.861Z,4.05
2022-08-25T23:59:06.059Z,3.72
